Time;durP1;ratioP1;P1;durP2;ratioP2;P2;SDS_P1;SDS_P2;PMS_P1;PMS_P2;Temp;Humidity;BMP_temperature;BMP_pressure;BME280_temperature;BME280_humidity;BME280_pressure;Samples;Min_cycle;Max_cycle;Signal;HPM_P1;HPM_P2
2021/12/11 00:01:01;;;;;;;43.30;20.50;;;;;;;;;;5051850;28;20923;-57
2021/12/11 00:03:34;;;;;;;42.50;21.50;;;;;;;;;;5052066;28;20892;-56
2021/12/11 00:06:03;;;;;;;41.23;20.37;;;;;;;;;;5051970;28;20437;-57
2021/12/11 00:08:31;;;;;;;46.00;22.13;;;;;;;;;;5051947;28;20885;-54
2021/12/11 00:11:00;;;;;;;45.47;21.60;;;;;;;;;;5051967;28;20419;-57
2021/12/11 00:13:29;;;;;;;44.60;21.90;;;;;;;;;;5051925;28;20439;-53
2021/12/11 00:15:56;;;;;;;44.03;21.27;;;;;;;;;;5050914;28;20415;-55
2021/12/11 00:18:23;;;;;;;47.67;22.90;;;;;;;;;;5053244;28;20467;-55
2021/12/11 00:20:58;;;;;;;42.17;20.77;;;;;;;;;;5055412;28;20534;-55
2021/12/11 00:23:29;;;;;;;43.90;20.80;;;;;;;;;;5055403;28;20411;-56
2021/12/11 00:25:55;;;;;;;45.80;21.47;;;;;;;;;;5055302;28;20428;-55
2021/12/11 00:28:21;;;;;;;47.93;22.50;;;;;;;;;;5055405;28;20761;-54
2021/12/11 00:30:47;;;;;;;45.97;21.40;;;;;;;;;;5055376;28;20424;-60
2021/12/11 00:33:22;;;;;;;44.30;21.77;;;;;;;;;;5055227;28;20808;-55
2021/12/11 00:35:49;;;;;;;39.43;19.90;;;;;;;;;;5055307;28;20411;-58
2021/12/11 00:38:17;;;;;;;42.77;22.83;;;;;;;;;;5055345;28;20471;-55
2021/12/11 00:40:45;;;;;;;42.03;21.67;;;;;;;;;;5055370;28;20419;-54
2021/12/11 00:43:16;;;;;;;51.00;23.30;;;;;;;;;;5055284;28;20454;-55
2021/12/11 00:45:43;;;;;;;52.60;23.27;;;;;;;;;;5055345;28;20418;-58
2021/12/11 00:48:10;;;;;;;47.40;21.70;;;;;;;;;;5055255;28;20462;-54
2021/12/11 00:50:45;;;;;;;46.67;21.83;;;;;;;;;;5053646;28;20455;-54
2021/12/11 00:53:11;;;;;;;46.13;22.93;;;;;;;;;;5054918;28;20966;-58
2021/12/11 00:55:41;;;;;;;37.20;20.03;;;;;;;;;;5054803;28;20411;-53
2021/12/11 00:58:10;;;;;;;46.80;23.10;;;;;;;;;;5054653;28;20979;-56
2021/12/11 01:00:38;;;;;;;47.53;22.47;;;;;;;;;;5054729;28;20499;-57
2021/12/11 01:03:05;;;;;;;44.40;22.90;;;;;;;;;;5054730;28;20430;-59
2021/12/11 01:05:36;;;;;;;41.10;20.50;;;;;;;;;;5054711;28;20468;-54
2021/12/11 01:08:11;;;;;;;48.63;22.17;;;;;;;;;;5054617;28;20420;-53
2021/12/11 01:10:37;;;;;;;43.27;19.97;;;;;;;;;;5054675;28;20412;-55
2021/12/11 01:13:05;;;;;;;40.73;20.40;;;;;;;;;;5054613;28;20506;-55
2021/12/11 01:15:31;;;;;;;40.60;19.90;;;;;;;;;;5054499;28;20403;-55
2021/12/11 01:20:54;;;;;;;40.07;19.80;;;;;;;;;;5054214;28;20808;-56
2021/12/11 01:23:46;;;;;;;36.43;19.10;;;;;;;;;;5054534;28;20419;-54
2021/12/11 01:26:15;;;;;;;41.90;20.70;;;;;;;;;;5054312;28;20396;-60
2021/12/11 01:28:41;;;;;;;49.60;21.23;;;;;;;;;;5054481;28;20404;-59
2021/12/11 01:31:08;;;;;;;45.33;21.87;;;;;;;;;;5053558;28;20400;-56
2021/12/11 01:33:34;;;;;;;41.33;20.67;;;;;;;;;;5054193;28;20382;-61
2021/12/11 01:36:01;;;;;;;45.07;20.67;;;;;;;;;;5054131;28;20454;-56
2021/12/11 01:38:30;;;;;;;40.13;19.70;;;;;;;;;;5054166;28;20570;-53
2021/12/11 01:40:59;;;;;;;40.33;20.60;;;;;;;;;;5053912;28;20408;-59
2021/12/11 01:43:26;;;;;;;48.13;23.43;;;;;;;;;;5054006;28;20399;-56
2021/12/11 01:45:54;;;;;;;91.90;38.97;;;;;;;;;;5053896;28;20408;-59
2021/12/11 01:48:21;;;;;;;90.17;42.13;;;;;;;;;;5054014;28;20400;-56
2021/12/11 01:50:50;;;;;;;115.03;48.43;;;;;;;;;;5053905;28;20908;-60
2021/12/11 01:53:24;;;;;;;112.33;47.23;;;;;;;;;;5053898;28;20884;-54
2021/12/11 01:55:54;;;;;;;103.00;40.90;;;;;;;;;;5053981;28;20422;-55
2021/12/11 01:58:25;;;;;;;93.73;40.07;;;;;;;;;;5053813;28;20558;-57
2021/12/11 02:01:02;;;;;;;79.87;36.07;;;;;;;;;;5053753;28;20769;-55
2021/12/11 02:03:29;;;;;;;79.33;32.70;;;;;;;;;;5053613;28;20453;-55
2021/12/11 02:05:55;;;;;;;73.73;31.63;;;;;;;;;;5053639;28;20404;-55
2021/12/11 02:08:22;;;;;;;66.60;32.43;;;;;;;;;;5053588;28;20412;-56
2021/12/11 02:10:53;;;;;;;64.13;30.40;;;;;;;;;;5053211;28;20403;-54
2021/12/11 02:13:29;;;;;;;68.83;31.60;;;;;;;;;;5053123;28;20435;-57
2021/12/11 02:15:56;;;;;;;58.20;27.90;;;;;;;;;;5053070;28;20399;-58
2021/12/11 02:18:34;;;;;;;56.70;24.83;;;;;;;;;;5052780;28;20513;-57
2021/12/11 02:21:06;;;;;;;50.50;24.63;;;;;;;;;;5052665;28;20451;-54
2021/12/11 02:23:33;;;;;;;51.03;24.53;;;;;;;;;;5052821;28;20493;-55
2021/12/11 02:26:04;;;;;;;45.20;23.07;;;;;;;;;;5052716;28;20408;-58
2021/12/11 02:28:33;;;;;;;52.50;24.23;;;;;;;;;;5052755;28;20415;-58
2021/12/11 02:31:05;;;;;;;46.77;21.83;;;;;;;;;;5052752;28;20411;-55
2021/12/11 02:33:38;;;;;;;42.67;21.70;;;;;;;;;;5052923;28;20403;-57
2021/12/11 02:36:13;;;;;;;49.07;23.50;;;;;;;;;;5052804;28;20785;-61
2021/12/11 02:38:48;;;;;;;50.63;24.37;;;;;;;;;;5052444;28;20481;-57
2021/12/11 02:41:32;;;;;;;54.23;26.23;;;;;;;;;;5052402;28;20888;-54
2021/12/11 02:44:03;;;;;;;52.90;24.63;;;;;;;;;;5052498;28;20466;-55
2021/12/11 02:46:32;;;;;;;46.37;22.27;;;;;;;;;;5052393;28;20883;-55
2021/12/11 02:49:03;;;;;;;44.33;21.17;;;;;;;;;;5052519;28;20411;-53
2021/12/11 02:51:30;;;;;;;44.43;21.40;;;;;;;;;;5052283;28;20494;-57
2021/12/11 02:54:00;;;;;;;39.10;20.37;;;;;;;;;;5052275;28;20416;-59
2021/12/11 02:56:32;;;;;;;44.23;21.93;;;;;;;;;;5052178;28;20433;-63
2021/12/11 02:59:01;;;;;;;45.43;22.23;;;;;;;;;;5052026;28;20475;-62
2021/12/11 03:01:32;;;;;;;47.53;22.93;;;;;;;;;;5052366;28;20811;-58
2021/12/11 03:04:16;;;;;;;42.37;20.97;;;;;;;;;;5052270;28;20418;-57
2021/12/11 03:06:45;;;;;;;42.20;21.07;;;;;;;;;;5052142;28;20422;-58
2021/12/11 03:09:13;;;;;;;47.50;22.97;;;;;;;;;;5052176;28;20446;-56
2021/12/11 03:11:39;;;;;;;44.70;22.33;;;;;;;;;;5050579;28;20422;-67
2021/12/11 03:14:08;;;;;;;48.00;21.27;;;;;;;;;;5052055;28;20415;-65
2021/12/11 03:16:36;;;;;;;44.20;20.43;;;;;;;;;;5051759;28;20419;-61
2021/12/11 03:19:03;;;;;;;45.50;20.17;;;;;;;;;;5051844;28;20810;-66
2021/12/11 03:21:29;;;;;;;43.30;21.53;;;;;;;;;;5051824;28;20549;-57
2021/12/11 03:23:56;;;;;;;45.53;20.90;;;;;;;;;;5051821;28;20453;-63
2021/12/11 03:26:23;;;;;;;47.10;21.47;;;;;;;;;;5052092;28;20404;-72
2021/12/11 03:28:49;;;;;;;43.87;21.43;;;;;;;;;;5051975;28;20761;-55
2021/12/11 03:31:15;;;;;;;45.73;21.47;;;;;;;;;;5051802;28;20414;-56
2021/12/11 03:33:47;;;;;;;43.23;21.33;;;;;;;;;;5051834;28;20889;-59
2021/12/11 03:36:14;;;;;;;47.90;22.20;;;;;;;;;;5051735;28;20411;-61
2021/12/11 03:38:41;;;;;;;43.63;20.40;;;;;;;;;;5051687;28;20503;-56
2021/12/11 03:41:08;;;;;;;45.93;20.80;;;;;;;;;;5051502;28;20954;-54
2021/12/11 03:43:34;;;;;;;48.30;21.13;;;;;;;;;;5051679;28;20412;-56
2021/12/11 03:46:02;;;;;;;48.67;22.40;;;;;;;;;;5051541;28;20449;-62
2021/12/11 03:48:31;;;;;;;54.47;21.13;;;;;;;;;;5051489;28;20415;-57
2021/12/11 03:50:58;;;;;;;55.47;21.73;;;;;;;;;;5051528;28;20888;-57
2021/12/11 03:53:25;;;;;;;57.40;20.90;;;;;;;;;;5052981;28;20739;-58
2021/12/11 03:55:56;;;;;;;70.10;21.10;;;;;;;;;;5055429;28;20485;-56
2021/12/11 03:58:22;;;;;;;59.13;21.30;;;;;;;;;;5055215;28;20466;-60
2021/12/11 04:00:48;;;;;;;67.97;20.77;;;;;;;;;;5055538;28;20465;-55
2021/12/11 04:03:15;;;;;;;69.73;19.70;;;;;;;;;;5055212;28;20466;-55
2021/12/11 04:05:42;;;;;;;79.93;19.80;;;;;;;;;;5055204;28;20926;-56
2021/12/11 04:08:10;;;;;;;78.20;20.23;;;;;;;;;;5055195;28;20982;-55
2021/12/11 04:10:36;;;;;;;50.80;17.87;;;;;;;;;;5055091;28;20799;-55
2021/12/11 04:13:04;;;;;;;127.10;19.63;;;;;;;;;;5070666;28;20422;-56
2021/12/11 04:15:30;;;;;;;81.53;19.60;;;;;;;;;;5055133;28;20839;-55
2021/12/11 04:17:56;;;;;;;80.77;19.37;;;;;;;;;;5053798;28;20470;-55
2021/12/11 04:20:24;;;;;;;61.47;19.80;;;;;;;;;;5054785;28;20459;-54
2021/12/11 04:22:50;;;;;;;51.90;19.63;;;;;;;;;;5054880;28;20412;-53
2021/12/11 04:25:17;;;;;;;65.67;19.10;;;;;;;;;;5054871;28;20408;-53
2021/12/11 04:27:44;;;;;;;86.97;20.10;;;;;;;;;;5054449;28;20485;-54
2021/12/11 04:30:11;;;;;;;62.80;18.67;;;;;;;;;;5054329;28;20396;-56
2021/12/11 04:32:38;;;;;;;56.30;19.93;;;;;;;;;;5054316;28;20463;-56
2021/12/11 04:35:05;;;;;;;61.70;19.80;;;;;;;;;;5053391;28;20414;-59
2021/12/11 04:37:32;;;;;;;63.93;19.73;;;;;;;;;;5054350;28;20498;-55
2021/12/11 04:40:03;;;;;;;57.53;19.97;;;;;;;;;;5054389;28;20740;-61
2021/12/11 04:42:52;;;;;;;50.30;19.20;;;;;;;;;;5054354;28;20482;-55
2021/12/11 04:45:21;;;;;;;71.10;19.83;;;;;;;;;;5054516;28;20511;-53
2021/12/11 04:47:56;;;;;;;71.47;19.93;;;;;;;;;;5054612;28;20426;-59
2021/12/11 04:50:42;;;;;;;89.60;19.07;;;;;;;;;;5054234;28;20402;-54
2021/12/11 04:53:24;;;;;;;69.40;18.17;;;;;;;;;;5054290;28;20404;-54
2021/12/11 05:04:06;;;;;;;50.73;18.27;;;;;;;;;;5054195;28;20424;-61
2021/12/11 05:07:00;;;;;;;49.77;18.13;;;;;;;;;;5053705;28;20410;-57
2021/12/11 05:09:41;;;;;;;48.90;17.77;;;;;;;;;;5054062;28;20411;-57
2021/12/11 05:14:42;;;;;;;36.70;16.50;;;;;;;;;;5053967;28;20498;-61
2021/12/11 05:17:08;;;;;;;39.47;16.83;;;;;;;;;;5053494;28;20462;-59
2021/12/11 05:19:35;;;;;;;35.70;18.07;;;;;;;;;;5053344;28;20535;-54
2021/12/11 05:22:01;;;;;;;91.73;18.47;;;;;;;;;;5053730;28;20758;-54
2021/12/11 05:24:27;;;;;;;84.13;15.63;;;;;;;;;;5053657;28;20408;-53
2021/12/11 05:26:54;;;;;;;32.93;17.10;;;;;;;;;;5053406;28;20412;-57
2021/12/11 05:29:20;;;;;;;154.93;18.33;;;;;;;;;;5052130;28;20390;-57
2021/12/11 05:31:46;;;;;;;78.97;18.27;;;;;;;;;;5052427;28;20422;-53
2021/12/11 05:34:12;;;;;;;61.37;16.80;;;;;;;;;;5053242;28;20446;-57
2021/12/11 05:36:38;;;;;;;32.60;16.23;;;;;;;;;;5053166;28;20422;-54
2021/12/11 05:39:09;;;;;;;78.43;18.10;;;;;;;;;;5053101;28;20475;-54
2021/12/11 05:41:35;;;;;;;40.57;16.07;;;;;;;;;;5051931;28;20439;-54
2021/12/11 05:44:01;;;;;;;36.70;16.90;;;;;;;;;;5051980;28;20781;-54
2021/12/11 05:46:27;;;;;;;44.80;16.80;;;;;;;;;;5053168;28;20412;-56
2021/12/11 05:48:53;;;;;;;38.10;17.20;;;;;;;;;;5053386;28;20552;-55
2021/12/11 05:51:22;;;;;;;38.30;17.40;;;;;;;;;;5053581;28;20477;-54
2021/12/11 05:53:49;;;;;;;45.50;16.80;;;;;;;;;;5053370;28;20888;-54
2021/12/11 05:56:16;;;;;;;47.70;18.17;;;;;;;;;;5053452;28;20427;-54
2021/12/11 06:01:26;;;;;;;35.40;17.50;;;;;;;;;;5053516;28;20403;-54
2021/12/11 06:03:52;;;;;;;58.57;18.30;;;;;;;;;;5053093;28;20452;-56
2021/12/11 06:06:18;;;;;;;69.03;16.97;;;;;;;;;;5053101;28;20455;-55
2021/12/11 06:08:44;;;;;;;42.93;15.67;;;;;;;;;;5052988;28;20772;-59
2021/12/11 06:11:11;;;;;;;43.43;15.30;;;;;;;;;;5052843;28;20511;-55
2021/12/11 06:13:37;;;;;;;34.97;15.37;;;;;;;;;;5052709;28;20469;-56
2021/12/11 06:16:04;;;;;;;41.57;16.60;;;;;;;;;;5052152;28;20408;-55
2021/12/11 06:18:31;;;;;;;56.67;17.50;;;;;;;;;;5051231;28;20482;-55
2021/12/11 06:20:57;;;;;;;38.03;17.33;;;;;;;;;;5052488;28;20517;-61
2021/12/11 06:23:23;;;;;;;38.73;17.10;;;;;;;;;;5052526;28;20538;-64
2021/12/11 06:25:50;;;;;;;37.77;16.93;;;;;;;;;;5052746;28;20400;-55
2021/12/11 06:28:16;;;;;;;36.10;17.90;;;;;;;;;;5052961;28;20745;-56
2021/12/11 06:30:42;;;;;;;43.63;17.90;;;;;;;;;;5052492;28;20374;-55
2021/12/11 06:33:08;;;;;;;37.90;16.20;;;;;;;;;;5052395;28;20411;-54
2021/12/11 06:35:55;;;;;;;45.80;16.13;;;;;;;;;;5052326;28;20399;-58
2021/12/11 06:38:24;;;;;;;43.57;15.20;;;;;;;;;;5052202;28;20471;-53
2021/12/11 06:40:51;;;;;;;49.93;16.40;;;;;;;;;;5052728;28;20408;-58
2021/12/11 06:43:17;;;;;;;41.90;16.30;;;;;;;;;;5052367;28;20408;-55
2021/12/11 06:45:43;;;;;;;37.03;16.63;;;;;;;;;;5052575;28;20403;-60
2021/12/11 06:48:09;;;;;;;41.70;15.33;;;;;;;;;;5050863;28;20469;-54
2021/12/11 06:50:36;;;;;;;50.77;16.67;;;;;;;;;;5052207;28;20899;-58
2021/12/11 06:53:05;;;;;;;34.03;15.70;;;;;;;;;;5052068;28;20776;-57
2021/12/11 06:55:31;;;;;;;41.43;16.23;;;;;;;;;;5050848;28;20386;-55
2021/12/11 06:57:57;;;;;;;31.90;15.80;;;;;;;;;;5050721;28;20457;-55
2021/12/11 07:00:26;;;;;;;39.40;17.93;;;;;;;;;;5052050;28;20411;-57
2021/12/11 07:02:52;;;;;;;50.53;18.73;;;;;;;;;;5052103;28;20458;-56
2021/12/11 07:05:18;;;;;;;50.93;18.13;;;;;;;;;;5052105;28;20374;-56
2021/12/11 07:07:44;;;;;;;59.90;17.53;;;;;;;;;;5052132;28;20897;-61
2021/12/11 07:10:12;;;;;;;65.03;23.20;;;;;;;;;;5052003;28;20411;-56
2021/12/11 07:12:39;;;;;;;46.17;18.17;;;;;;;;;;5051966;28;20386;-59
2021/12/11 07:15:06;;;;;;;48.60;18.87;;;;;;;;;;5052135;28;20426;-62
2021/12/11 07:17:34;;;;;;;44.93;18.57;;;;;;;;;;5050554;28;20455;-67
2021/12/11 07:20:00;;;;;;;44.13;18.50;;;;;;;;;;5051699;28;20459;-65
2021/12/11 07:22:26;;;;;;;47.53;17.37;;;;;;;;;;5051929;28;20403;-68
2021/12/11 07:24:55;;;;;;;50.57;19.43;;;;;;;;;;5051867;28;20832;-63
2021/12/11 07:27:21;;;;;;;81.67;19.87;;;;;;;;;;5051647;28;20436;-60
2021/12/11 07:29:48;;;;;;;42.60;18.87;;;;;;;;;;5054462;28;20514;-59
2021/12/11 07:32:14;;;;;;;47.60;19.63;;;;;;;;;;5055879;28;20413;-60
2021/12/11 07:34:41;;;;;;;45.03;18.23;;;;;;;;;;5055716;28;20382;-63
2021/12/11 07:37:07;;;;;;;33.70;11.90;;;;;;;;;;5055695;28;20397;-64
2021/12/11 07:39:34;;;;;;;44.67;15.20;;;;;;;;;;5054527;28;20447;-62
2021/12/11 07:42:00;;;;;;;45.20;14.80;;;;;;;;;;5055720;28;20434;-63
2021/12/11 07:44:26;;;;;;;56.77;17.03;;;;;;;;;;5055651;28;20419;-59
2021/12/11 07:46:54;;;;;;;48.43;19.10;;;;;;;;;;5055630;28;20418;-61
2021/12/11 07:49:20;;;;;;;57.20;19.03;;;;;;;;;;5055661;28;20501;-57
2021/12/11 07:51:48;;;;;;;57.63;21.80;;;;;;;;;;5055756;28;20395;-57
2021/12/11 07:54:14;;;;;;;60.37;21.00;;;;;;;;;;5055230;28;20451;-61
2021/12/11 07:56:40;;;;;;;49.93;19.63;;;;;;;;;;5055219;28;20375;-60
2021/12/11 07:59:07;;;;;;;49.90;20.23;;;;;;;;;;5055498;28;20498;-62
2021/12/11 08:01:35;;;;;;;48.63;20.00;;;;;;;;;;5054723;28;20382;-57
2021/12/11 08:04:02;;;;;;;51.60;21.20;;;;;;;;;;5054999;28;20438;-51
2021/12/11 08:06:29;;;;;;;43.20;19.27;;;;;;;;;;5054955;28;20415;-61
2021/12/11 08:08:55;;;;;;;50.50;22.13;;;;;;;;;;5053705;28;20502;-63
2021/12/11 08:11:21;;;;;;;47.07;20.37;;;;;;;;;;5054998;28;20399;-59
2021/12/11 08:13:49;;;;;;;44.33;21.10;;;;;;;;;;5055814;28;20450;-55
2021/12/11 08:16:18;;;;;;;57.57;22.07;;;;;;;;;;5055281;28;20415;-60
2021/12/11 08:18:44;;;;;;;53.73;20.93;;;;;;;;;;5055658;28;20415;-61
2021/12/11 08:21:10;;;;;;;54.20;21.83;;;;;;;;;;5055223;28;20399;-63
2021/12/11 08:23:43;;;;;;;43.30;18.80;;;;;;;;;;5055190;28;20788;-59
2021/12/11 08:26:09;;;;;;;46.57;19.60;;;;;;;;;;5055137;28;20410;-61
2021/12/11 08:28:35;;;;;;;41.90;20.43;;;;;;;;;;5055164;28;20516;-57
2021/12/11 08:31:01;;;;;;;41.10;18.97;;;;;;;;;;5055570;28;20420;-59
2021/12/11 08:33:28;;;;;;;44.87;19.17;;;;;;;;;;5053842;28;20755;-56
2021/12/11 08:35:54;;;;;;;38.37;17.03;;;;;;;;;;5055010;28;20508;-56
2021/12/11 08:38:20;;;;;;;44.37;19.77;;;;;;;;;;5054985;28;20516;-58
2021/12/11 08:40:50;;;;;;;38.10;18.93;;;;;;;;;;5054873;28;20423;-56
2021/12/11 08:43:17;;;;;;;43.87;18.70;;;;;;;;;;5055347;28;20469;-58
2021/12/11 08:45:49;;;;;;;41.47;17.63;;;;;;;;;;5053811;28;20426;-56
2021/12/11 08:48:17;;;;;;;37.00;17.23;;;;;;;;;;5055279;28;20474;-54
2021/12/11 08:50:44;;;;;;;35.30;15.63;;;;;;;;;;5053810;28;20414;-57
2021/12/11 08:53:11;;;;;;;41.60;18.20;;;;;;;;;;5053626;28;20420;-55
2021/12/11 08:55:38;;;;;;;40.43;17.00;;;;;;;;;;5054910;28;20408;-55
2021/12/11 08:58:06;;;;;;;35.47;17.03;;;;;;;;;;5054852;28;20896;-54
2021/12/11 09:00:32;;;;;;;37.40;16.10;;;;;;;;;;5053658;28;20412;-55
2021/12/11 09:03:04;;;;;;;38.60;17.00;;;;;;;;;;5052910;28;20510;-54
2021/12/11 09:05:33;;;;;;;34.73;17.10;;;;;;;;;;5053909;28;20768;-55
2021/12/11 09:08:02;;;;;;;40.40;16.20;;;;;;;;;;5053227;28;20555;-59
2021/12/11 09:10:37;;;;;;;41.83;16.53;;;;;;;;;;5054675;28;20420;-59
2021/12/11 09:13:16;;;;;;;32.70;16.00;;;;;;;;;;5054464;28;20410;-56
2021/12/11 09:15:45;;;;;;;39.20;17.73;;;;;;;;;;5054558;28;20420;-58
2021/12/11 09:18:14;;;;;;;38.13;16.17;;;;;;;;;;5054501;28;20404;-59
2021/12/11 09:20:44;;;;;;;41.07;18.80;;;;;;;;;;5054375;28;20447;-56
2021/12/11 09:23:16;;;;;;;34.53;17.20;;;;;;;;;;5054440;28;20400;-57
2021/12/11 09:25:45;;;;;;;41.50;18.07;;;;;;;;;;5054252;28;20450;-57
2021/12/11 09:28:11;;;;;;;41.90;16.80;;;;;;;;;;5054256;28;20441;-59
2021/12/11 09:30:47;;;;;;;39.63;18.17;;;;;;;;;;5054169;28;20469;-57
2021/12/11 09:33:15;;;;;;;36.20;17.53;;;;;;;;;;5052920;28;20471;-58
2021/12/11 09:35:43;;;;;;;42.10;18.60;;;;;;;;;;5052982;28;20742;-55
2021/12/11 09:38:13;;;;;;;40.23;17.70;;;;;;;;;;5054099;28;20419;-55
2021/12/11 09:40:41;;;;;;;39.43;17.00;;;;;;;;;;5054311;28;20434;-54
2021/12/11 09:43:08;;;;;;;41.60;19.23;;;;;;;;;;5052790;28;20515;-56
2021/12/11 09:45:39;;;;;;;44.23;19.23;;;;;;;;;;5054247;28;20412;-56
2021/12/11 09:48:07;;;;;;;37.90;16.80;;;;;;;;;;5053768;28;20566;-54
2021/12/11 09:50:44;;;;;;;35.73;16.80;;;;;;;;;;5053063;28;20412;-54
2021/12/11 09:53:11;;;;;;;39.60;17.80;;;;;;;;;;5053734;28;20414;-57
2021/12/11 09:55:39;;;;;;;39.10;18.83;;;;;;;;;;5052236;28;20420;-56
2021/12/11 09:58:07;;;;;;;40.37;19.23;;;;;;;;;;5053651;28;20510;-55
2021/12/11 10:00:43;;;;;;;51.33;19.80;;;;;;;;;;5052275;28;20418;-54
2021/12/11 10:03:10;;;;;;;43.10;19.67;;;;;;;;;;5053734;28;20415;-56
2021/12/11 10:05:43;;;;;;;32.50;17.40;;;;;;;;;;5053746;28;20458;-59
2021/12/11 10:08:27;;;;;;;40.33;19.03;;;;;;;;;;5052163;28;20503;-55
2021/12/11 10:11:09;;;;;;;37.40;17.73;;;;;;;;;;5053591;28;20904;-55
2021/12/11 10:13:36;;;;;;;41.63;19.60;;;;;;;;;;5053555;28;20401;-53
2021/12/11 10:16:03;;;;;;;33.97;17.20;;;;;;;;;;5053403;28;20403;-54
2021/12/11 10:18:30;;;;;;;38.30;18.50;;;;;;;;;;5053358;28;20392;-57
2021/12/11 10:21:03;;;;;;;43.67;21.53;;;;;;;;;;5051844;28;20467;-56
2021/12/11 10:23:31;;;;;;;36.23;18.87;;;;;;;;;;5053214;28;20408;-57
2021/12/11 10:25:59;;;;;;;45.63;19.87;;;;;;;;;;5053242;28;20495;-56
2021/12/11 10:28:27;;;;;;;45.33;21.03;;;;;;;;;;5053165;28;20932;-57
2021/12/11 10:30:59;;;;;;;40.03;19.80;;;;;;;;;;5053539;28;20404;-56
2021/12/11 10:33:27;;;;;;;46.30;21.17;;;;;;;;;;5053101;28;20915;-57
2021/12/11 10:35:56;;;;;;;45.07;21.60;;;;;;;;;;5052990;28;20404;-61
2021/12/11 10:38:22;;;;;;;38.07;19.20;;;;;;;;;;5053041;28;20803;-57
2021/12/11 10:40:50;;;;;;;34.30;19.43;;;;;;;;;;5053197;28;20408;-59
2021/12/11 10:43:21;;;;;;;43.07;21.30;;;;;;;;;;5053171;28;20415;-57
2021/12/11 10:45:48;;;;;;;46.70;21.50;;;;;;;;;;5052689;28;20503;-56
2021/12/11 10:48:17;;;;;;;41.87;21.63;;;;;;;;;;5052406;28;20797;-59
2021/12/11 10:50:45;;;;;;;37.20;20.20;;;;;;;;;;5052825;28;20770;-58
2021/12/11 10:53:13;;;;;;;42.00;20.83;;;;;;;;;;5052536;28;20404;-57
2021/12/11 10:55:39;;;;;;;49.07;21.63;;;;;;;;;;5052654;28;20415;-62
2021/12/11 10:58:08;;;;;;;46.70;22.80;;;;;;;;;;5052606;28;20421;-55
2021/12/11 11:00:42;;;;;;;44.87;22.27;;;;;;;;;;5052411;28;20418;-57
2021/12/11 11:03:09;;;;;;;48.57;22.70;;;;;;;;;;5052244;28;20467;-58
2021/12/11 11:05:35;;;;;;;53.17;23.93;;;;;;;;;;5052411;28;20407;-56
2021/12/11 11:08:02;;;;;;;58.10;25.87;;;;;;;;;;5052511;28;20869;-55
2021/12/11 11:10:30;;;;;;;55.23;25.60;;;;;;;;;;5052445;28;20423;-56
2021/12/11 11:12:58;;;;;;;63.10;26.70;;;;;;;;;;5051078;28;20452;-55
2021/12/11 11:15:24;;;;;;;67.90;26.10;;;;;;;;;;5052436;28;20489;-56
2021/12/11 11:17:51;;;;;;;70.77;26.13;;;;;;;;;;5051106;28;20787;-59
2021/12/11 11:20:19;;;;;;;74.73;29.70;;;;;;;;;;5052544;28;20482;-55
2021/12/11 11:22:46;;;;;;;61.57;27.80;;;;;;;;;;5050971;28;20423;-55
2021/12/11 11:25:21;;;;;;;84.43;28.87;;;;;;;;;;5052439;28;20446;-54
2021/12/11 11:27:50;;;;;;;67.70;28.60;;;;;;;;;;5052324;28;20458;-56
2021/12/11 11:30:20;;;;;;;74.63;29.00;;;;;;;;;;5052675;28;20434;-56
2021/12/11 11:32:46;;;;;;;81.53;29.30;;;;;;;;;;5052355;28;20494;-56
2021/12/11 11:35:18;;;;;;;70.07;26.63;;;;;;;;;;5052223;28;20422;-55
2021/12/11 11:37:45;;;;;;;57.57;25.63;;;;;;;;;;5052184;28;20470;-55
2021/12/11 11:40:13;;;;;;;75.57;27.70;;;;;;;;;;5051898;28;20407;-55
2021/12/11 11:42:40;;;;;;;65.60;26.30;;;;;;;;;;5052017;28;20836;-56
2021/12/11 11:45:07;;;;;;;60.90;26.47;;;;;;;;;;5052162;28;20764;-58
2021/12/11 11:47:33;;;;;;;52.57;24.73;;;;;;;;;;5052244;28;20573;-56
2021/12/11 11:49:59;;;;;;;54.63;23.77;;;;;;;;;;5052149;28;20434;-58
2021/12/11 11:52:27;;;;;;;54.77;24.40;;;;;;;;;;5051897;28;20916;-57
2021/12/11 11:54:54;;;;;;;57.37;23.77;;;;;;;;;;5052136;28;20430;-56
2021/12/11 11:57:23;;;;;;;57.47;24.10;;;;;;;;;;5052313;28;20471;-58
2021/12/11 11:59:50;;;;;;;54.10;23.50;;;;;;;;;;5051859;28;20916;-56
2021/12/11 12:02:18;;;;;;;42.77;21.27;;;;;;;;;;5052202;28;20408;-57
2021/12/11 12:04:46;;;;;;;50.87;22.27;;;;;;;;;;5051433;28;20502;-55
2021/12/11 12:07:12;;;;;;;51.07;21.87;;;;;;;;;;5050478;28;20852;-55
2021/12/11 12:09:42;;;;;;;48.13;22.57;;;;;;;;;;5051858;28;20412;-54
2021/12/11 12:12:10;;;;;;;49.83;23.30;;;;;;;;;;5051770;28;20407;-58
2021/12/11 12:14:37;;;;;;;55.37;23.17;;;;;;;;;;5053504;28;20416;-56
2021/12/11 12:17:06;;;;;;;43.53;22.07;;;;;;;;;;5055434;28;20411;-57
2021/12/11 12:19:32;;;;;;;44.57;21.53;;;;;;;;;;5055395;28;20451;-55
2021/12/11 12:22:01;;;;;;;44.73;22.33;;;;;;;;;;5055317;28;20502;-54
2021/12/11 12:24:31;;;;;;;50.73;23.60;;;;;;;;;;5055412;28;20412;-57
2021/12/11 12:26:57;;;;;;;43.77;22.03;;;;;;;;;;5055370;28;20419;-55
2021/12/11 12:29:23;;;;;;;46.03;22.47;;;;;;;;;;5055278;28;20493;-57
2021/12/11 12:31:56;;;;;;;47.03;22.80;;;;;;;;;;5055363;28;20404;-57
2021/12/11 12:34:22;;;;;;;46.77;21.67;;;;;;;;;;5054932;28;20942;-55
2021/12/11 12:36:49;;;;;;;49.33;22.50;;;;;;;;;;5055111;28;20411;-57
2021/12/11 12:39:17;;;;;;;44.53;21.87;;;;;;;;;;5055582;28;20498;-58
2021/12/11 12:41:58;;;;;;;45.73;22.13;;;;;;;;;;5053562;28;20784;-55
2021/12/11 12:44:25;;;;;;;46.03;21.97;;;;;;;;;;5055017;28;20498;-62
2021/12/11 12:46:57;;;;;;;50.50;22.03;;;;;;;;;;5055212;28;20761;-57
2021/12/11 12:49:28;;;;;;;50.13;22.13;;;;;;;;;;5055098;28;20506;-58
2021/12/11 12:51:56;;;;;;;42.00;20.67;;;;;;;;;;5055159;28;20494;-56
2021/12/11 12:54:22;;;;;;;45.60;21.80;;;;;;;;;;5054729;28;20403;-56
2021/12/11 12:56:52;;;;;;;44.83;21.83;;;;;;;;;;5054815;28;20545;-57
2021/12/11 12:59:27;;;;;;;38.33;20.10;;;;;;;;;;5054807;28;20517;-60
2021/12/11 13:02:22;;;;;;;47.43;22.93;;;;;;;;;;5054526;28;20407;-57
2021/12/11 13:04:50;;;;;;;44.97;22.40;;;;;;;;;;5038243;28;20423;-58
2021/12/11 13:07:17;;;;;;;43.60;21.17;;;;;;;;;;5054852;28;20426;-56
2021/12/11 13:09:46;;;;;;;38.77;20.27;;;;;;;;;;5054594;28;20502;-56
2021/12/11 13:12:21;;;;;;;39.87;21.20;;;;;;;;;;5054595;28;20404;-55
2021/12/11 13:14:48;;;;;;;45.77;20.60;;;;;;;;;;5054660;28;20438;-60
2021/12/11 13:17:31;;;;;;;47.60;20.63;;;;;;;;;;5054314;28;20404;-56
2021/12/11 13:20:03;;;;;;;40.73;22.70;;;;;;;;;;5054219;28;20463;-56
2021/12/11 13:22:31;;;;;;;43.30;21.63;;;;;;;;;;5054592;28;20396;-56
2021/12/11 13:25:00;;;;;;;38.60;19.90;;;;;;;;;;5053771;28;20458;-58
2021/12/11 13:27:27;;;;;;;40.43;20.60;;;;;;;;;;5053822;28;20483;-58
2021/12/11 13:29:54;;;;;;;43.90;22.63;;;;;;;;;;5054167;28;20423;-59
2021/12/11 13:32:27;;;;;;;37.97;21.13;;;;;;;;;;5054186;28;20954;-57
2021/12/11 13:34:55;;;;;;;40.13;21.97;;;;;;;;;;5052860;28;20758;-56
2021/12/11 13:37:22;;;;;;;45.70;22.10;;;;;;;;;;5054105;28;20409;-56
2021/12/11 13:39:50;;;;;;;41.33;22.37;;;;;;;;;;5054084;28;20411;-58
2021/12/11 13:42:19;;;;;;;40.00;21.70;;;;;;;;;;5054220;28;20427;-59
2021/12/11 13:44:46;;;;;;;44.20;21.70;;;;;;;;;;5053916;28;20414;-56
2021/12/11 13:47:14;;;;;;;39.37;21.87;;;;;;;;;;5053990;28;20411;-57
2021/12/11 13:49:41;;;;;;;38.30;21.37;;;;;;;;;;5053640;28;20415;-58
2021/12/11 13:52:11;;;;;;;44.60;22.80;;;;;;;;;;5052522;28;20923;-57
2021/12/11 13:54:38;;;;;;;43.07;21.97;;;;;;;;;;5053685;28;20432;-61
2021/12/11 13:57:09;;;;;;;46.53;22.03;;;;;;;;;;5053959;28;20415;-60
2021/12/11 13:59:36;;;;;;;40.57;21.90;;;;;;;;;;5053792;28;20419;-62
2021/12/11 14:02:02;;;;;;;46.23;22.60;;;;;;;;;;5053669;28;20418;-59
2021/12/11 14:04:29;;;;;;;40.70;23.63;;;;;;;;;;5053629;28;20776;-59
2021/12/11 14:07:10;;;;;;;43.33;23.53;;;;;;;;;;5053620;28;20408;-55
2021/12/11 14:09:37;;;;;;;42.27;23.27;;;;;;;;;;5052132;28;20432;-57
2021/12/11 14:12:03;;;;;;;43.70;23.47;;;;;;;;;;5053735;28;20432;-57
2021/12/11 14:14:29;;;;;;;48.87;24.07;;;;;;;;;;5053663;28;20407;-57
2021/12/11 14:16:56;;;;;;;40.73;22.77;;;;;;;;;;5053354;28;20446;-55
2021/12/11 14:19:22;;;;;;;45.47;22.53;;;;;;;;;;5053321;28;20458;-57
2021/12/11 14:21:48;;;;;;;45.90;22.20;;;;;;;;;;5053372;28;20416;-57
2021/12/11 14:24:14;;;;;;;42.80;23.30;;;;;;;;;;5053248;28;20911;-55
2021/12/11 14:26:41;;;;;;;44.60;23.07;;;;;;;;;;5051859;28;20928;-58
2021/12/11 14:29:08;;;;;;;45.63;23.10;;;;;;;;;;5053114;28;20467;-56
2021/12/11 14:31:35;;;;;;;43.40;22.50;;;;;;;;;;5052998;28;20423;-64
2021/12/11 14:34:02;;;;;;;44.33;23.57;;;;;;;;;;5052865;28;20434;-56
2021/12/11 14:36:30;;;;;;;44.50;23.60;;;;;;;;;;5052597;28;20408;-58
2021/12/11 14:39:04;;;;;;;46.00;23.90;;;;;;;;;;5052861;28;20482;-55
2021/12/11 14:41:31;;;;;;;40.40;22.87;;;;;;;;;;5053052;28;20526;-57